createdAt,value
2023-05-10T00:00:15.861Z,7079.00
2023-05-10T00:01:15.870Z,7081.00
2023-05-10T00:02:15.919Z,7036.00
2023-05-10T00:03:16.002Z,6929.00
2023-05-10T00:04:15.956Z,6877.00
2023-05-10T00:05:16.002Z,6905.00
2023-05-10T00:06:16.011Z,6963.00
2023-05-10T00:07:16.044Z,7068.00
2023-05-10T00:08:16.052Z,7180.00
2023-05-10T00:09:16.057Z,7300.00
2023-05-10T00:10:16.270Z,7288.00
2023-05-10T00:11:16.117Z,7257.00
2023-05-10T00:12:16.159Z,7151.00
2023-05-10T00:13:16.254Z,7023.00
2023-05-10T00:14:16.241Z,7112.00
2023-05-10T00:15:16.293Z,7097.00
2023-05-10T00:16:16.350Z,7040.00
2023-05-10T00:17:16.406Z,6978.00
2023-05-10T00:18:16.390Z,6906.00
2023-05-10T00:19:16.411Z,6849.00
2023-05-10T00:20:16.560Z,6817.00
2023-05-10T00:21:16.494Z,6870.00
2023-05-10T00:22:16.567Z,6839.00
2023-05-10T00:23:16.641Z,6837.00
2023-05-10T00:24:16.647Z,6858.00
2023-05-10T00:25:16.733Z,6773.00
2023-05-10T00:26:16.747Z,6680.00
2023-05-10T00:27:16.794Z,6624.00
2023-05-10T00:28:16.828Z,6591.00
2023-05-10T00:29:16.893Z,6533.00
2023-05-10T00:30:17.039Z,6496.00
2023-05-10T00:31:17.040Z,6574.00
2023-05-10T00:32:17.151Z,6730.00
2023-05-10T00:33:16.974Z,6756.00
2023-05-10T00:34:16.988Z,6651.00
2023-05-10T00:35:17.010Z,6693.00
2023-05-10T00:36:17.032Z,6791.00
2023-05-10T00:37:17.058Z,6837.00
2023-05-10T00:38:17.070Z,6742.00
2023-05-10T00:39:17.058Z,6750.00
2023-05-10T00:40:17.336Z,6767.00
2023-05-10T00:41:17.179Z,6773.00
2023-05-10T00:42:17.185Z,6729.00
2023-05-10T00:43:17.219Z,6655.00
2023-05-10T00:44:17.233Z,6615.00
2023-05-10T00:45:17.256Z,6577.00
2023-05-10T00:46:17.321Z,6655.00
2023-05-10T00:47:17.290Z,6619.00
2023-05-10T00:48:17.361Z,6620.00
2023-05-10T00:49:17.329Z,6566.00
2023-05-10T00:50:17.599Z,6498.00
2023-05-10T00:51:17.384Z,6542.00
2023-05-10T00:52:17.441Z,6616.00
2023-05-10T00:53:17.431Z,6702.00
2023-05-10T00:54:17.424Z,6695.00
2023-05-10T00:55:17.437Z,6596.00
2023-05-10T00:56:17.457Z,6572.00
2023-05-10T00:57:17.478Z,6589.00
2023-05-10T00:58:17.547Z,6602.00
2023-05-10T00:59:17.622Z,6590.00
2023-05-10T01:00:17.750Z,6578.00
2023-05-10T01:01:17.711Z,6447.00
2023-05-10T01:02:17.756Z,6440.00
2023-05-10T01:03:17.818Z,6424.00
2023-05-10T01:04:17.761Z,6429.00
2023-05-10T01:05:17.899Z,6450.00
2023-05-10T01:06:17.855Z,6455.00
2023-05-10T01:07:17.880Z,6582.00
2023-05-10T01:08:17.881Z,6715.00
2023-05-10T01:09:17.912Z,6735.00
2023-05-10T01:10:18.155Z,6717.00
2023-05-10T01:11:17.941Z,6698.00
2023-05-10T01:12:18.071Z,6850.00
2023-05-10T01:13:18.098Z,6858.00
2023-05-10T01:14:18.103Z,6816.00
2023-05-10T01:15:18.223Z,6932.00
2023-05-10T01:16:18.212Z,6954.00
2023-05-10T01:17:18.265Z,6856.00
2023-05-10T01:28:51.371Z,500.00
2023-05-10T01:29:58.902Z,500.00
2023-05-10T01:30:52.015Z,500.00
2023-05-10T01:31:51.042Z,500.00
2023-05-10T01:32:51.072Z,500.00
2023-05-10T01:33:51.009Z,500.00
2023-05-10T01:34:50.966Z,500.00
2023-05-10T01:35:51.005Z,468.00
2023-05-10T01:36:50.950Z,421.00
2023-05-10T01:37:50.966Z,409.00
2023-05-10T01:38:50.939Z,434.00
2023-05-10T01:39:50.934Z,508.00
2023-05-10T01:40:50.915Z,605.00
2023-05-10T01:41:50.898Z,624.00
2023-05-10T01:42:50.907Z,579.00
2023-05-10T01:43:50.935Z,611.00
2023-05-10T01:44:50.888Z,706.00
2023-05-10T01:45:50.914Z,914.00
2023-05-10T01:46:50.975Z,1139.00
2023-05-10T01:47:51.075Z,1313.00
2023-05-10T01:48:51.071Z,1410.00
2023-05-10T01:49:51.086Z,1490.00
2023-05-10T01:50:51.105Z,1410.00
2023-05-10T01:51:51.172Z,1464.00
2023-05-10T01:52:51.294Z,1568.00
2023-05-10T01:53:51.289Z,1648.00
2023-05-10T01:54:51.333Z,1620.00
2023-05-10T01:55:51.473Z,1598.00
2023-05-10T01:56:51.477Z,1618.00
2023-05-10T01:57:51.515Z,1621.00
2023-05-10T01:58:51.526Z,1586.00
2023-05-10T01:59:51.597Z,1544.00
2023-05-10T02:00:51.643Z,1574.00
2023-05-10T02:01:51.620Z,1592.00
2023-05-10T02:02:51.722Z,1577.00
2023-05-10T02:03:51.727Z,1600.00
2023-05-10T02:04:51.746Z,1575.00
2023-05-10T02:05:51.771Z,1424.00
2023-05-10T02:06:51.827Z,1175.00
2023-05-10T02:07:51.850Z,1087.00
2023-05-10T02:08:51.918Z,760.00
2023-05-10T02:09:51.942Z,654.00
2023-05-10T02:10:52.035Z,656.00
2023-05-10T02:11:52.047Z,626.00
2023-05-10T02:12:52.121Z,610.00
2023-05-10T02:13:52.175Z,630.00
2023-05-10T02:14:52.242Z,638.00
2023-05-10T02:15:52.288Z,656.00
2023-05-10T02:16:52.364Z,667.00
2023-05-10T02:17:52.360Z,683.00
2023-05-10T02:18:52.409Z,823.00
2023-05-10T02:19:52.435Z,921.00
2023-05-10T02:20:52.506Z,893.00
2023-05-10T02:21:52.561Z,655.00
2023-05-10T02:22:52.592Z,558.00
2023-05-10T02:23:52.722Z,493.00
2023-05-10T02:24:52.807Z,533.00
2023-05-10T02:25:52.765Z,578.00
2023-05-10T02:26:52.809Z,586.00
2023-05-10T02:27:52.916Z,592.00
2023-05-10T02:28:52.933Z,608.00
2023-05-10T02:29:52.955Z,612.00
2023-05-10T02:30:52.993Z,634.00
2023-05-10T02:31:53.077Z,607.00
2023-05-10T02:32:53.066Z,604.00
2023-05-10T02:33:53.049Z,623.00
2023-05-10T02:34:53.084Z,654.00
2023-05-10T02:35:53.024Z,658.00
2023-05-10T02:36:53.100Z,803.00
2023-05-10T02:37:53.115Z,641.00
2023-05-10T02:38:53.201Z,597.00
2023-05-10T02:39:53.245Z,613.00
2023-05-10T02:40:53.244Z,629.00
2023-05-10T02:41:53.279Z,643.00
2023-05-10T02:42:53.267Z,693.00
2023-05-10T02:43:53.318Z,672.00
2023-05-10T02:44:53.317Z,646.00
2023-05-10T02:45:53.367Z,642.00
2023-05-10T02:46:53.343Z,711.00
2023-05-10T02:47:53.399Z,708.00
2023-05-10T02:48:54.413Z,748.00
2023-05-10T02:49:53.529Z,753.00
2023-05-10T02:50:53.541Z,690.00
2023-05-10T02:51:53.531Z,655.00
2023-05-10T02:52:53.546Z,609.00
2023-05-10T02:53:54.407Z,596.00
2023-05-10T02:54:53.572Z,596.00
2023-05-10T02:55:53.635Z,626.00
2023-05-10T02:56:53.639Z,657.00
2023-05-10T02:57:53.642Z,649.00
2023-05-10T02:58:53.658Z,619.00
2023-05-10T02:59:53.644Z,643.00
2023-05-10T03:00:53.693Z,660.00
2023-05-10T03:01:53.702Z,602.00
2023-05-10T03:02:53.720Z,590.00
2023-05-10T03:03:53.720Z,497.00
2023-05-10T03:04:53.708Z,471.00
2023-05-10T03:05:53.683Z,500.00
2023-05-10T03:06:53.697Z,530.00
2023-05-10T03:07:53.714Z,550.00
2023-05-10T03:08:53.723Z,594.00
2023-05-10T03:09:53.736Z,611.00
2023-05-10T03:10:53.793Z,606.00
2023-05-10T03:11:53.839Z,609.00
2023-05-10T03:12:53.828Z,602.00
2023-05-10T03:13:53.811Z,585.00
2023-05-10T03:14:53.840Z,549.00
2023-05-10T03:15:53.859Z,531.00
2023-05-10T03:16:53.884Z,498.00
2023-05-10T03:17:53.981Z,500.00
2023-05-10T03:18:54.007Z,557.00
2023-05-10T03:19:53.971Z,615.00
2023-05-10T03:20:53.966Z,830.00
2023-05-10T03:21:54.039Z,982.00
2023-05-10T03:22:54.087Z,1028.00
2023-05-10T03:23:54.179Z,1095.00
2023-05-10T03:24:54.263Z,1053.00
2023-05-10T03:25:54.194Z,1035.00
2023-05-10T03:26:54.204Z,1092.00
2023-05-10T03:27:54.368Z,1130.00
2023-05-10T03:28:54.325Z,1175.00
2023-05-10T03:29:54.381Z,1155.00
2023-05-10T03:30:54.385Z,1157.00
2023-05-10T03:31:54.509Z,1058.00
2023-05-10T03:32:54.446Z,932.00
2023-05-10T03:33:54.468Z,806.00
2023-05-10T03:34:54.518Z,865.00
2023-05-10T03:35:54.473Z,804.00
2023-05-10T03:36:54.553Z,730.00
2023-05-10T03:37:54.550Z,722.00
2023-05-10T03:38:54.702Z,729.00
2023-05-10T03:39:54.668Z,650.00
2023-05-10T03:40:54.729Z,674.00
2023-05-10T03:41:54.742Z,731.00
2023-05-10T03:42:54.752Z,695.00
2023-05-10T03:43:55.453Z,688.00
2023-05-10T03:44:54.788Z,687.00
2023-05-10T03:45:54.879Z,631.00
2023-05-10T03:46:54.904Z,602.00
2023-05-10T03:47:55.018Z,617.00
2023-05-10T03:48:54.925Z,627.00
2023-05-10T03:49:54.995Z,638.00
2023-05-10T03:50:55.023Z,654.00
2023-05-10T03:51:55.093Z,637.00
2023-05-10T03:52:55.141Z,628.00
2023-05-10T03:53:55.158Z,610.00
2023-05-10T03:54:55.196Z,617.00
2023-05-10T03:55:55.189Z,609.00
2023-05-10T03:56:55.244Z,566.00
2023-05-10T03:57:55.295Z,500.00
2023-05-10T03:58:55.374Z,500.00
2023-05-10T03:59:55.383Z,534.00
2023-05-10T04:00:55.392Z,649.00
2023-05-10T04:01:55.438Z,730.00
2023-05-10T04:02:55.583Z,613.00
2023-05-10T04:03:56.040Z,513.00
2023-05-10T04:04:55.572Z,503.00
2023-05-10T04:05:55.688Z,489.00
2023-05-10T04:06:55.608Z,440.00
2023-05-10T04:07:55.679Z,486.00
2023-05-10T04:08:55.744Z,527.00
2023-05-10T04:09:55.740Z,617.00
2023-05-10T04:10:55.725Z,660.00
2023-05-10T04:11:55.712Z,653.00
2023-05-10T04:12:55.797Z,645.00
2023-05-10T04:13:55.748Z,648.00
2023-05-10T04:14:55.779Z,483.00
2023-05-10T04:15:55.856Z,400.00
2023-05-10T04:16:55.923Z,400.00
2023-05-10T04:17:55.937Z,400.00
2023-05-10T04:18:55.954Z,400.00
2023-05-10T04:19:55.943Z,402.00
2023-05-10T04:20:55.999Z,462.00
2023-05-10T04:21:56.040Z,600.00
2023-05-10T04:22:56.095Z,701.00
2023-05-10T04:23:56.087Z,910.00
2023-05-10T04:24:56.092Z,1069.00
2023-05-10T04:25:56.158Z,974.00
2023-05-10T04:26:57.736Z,877.00
2023-05-10T04:27:56.260Z,674.00
2023-05-10T04:28:56.492Z,400.00
2023-05-10T04:29:56.342Z,400.00
2023-05-10T04:30:56.422Z,400.00
2023-05-10T04:31:56.429Z,400.00
2023-05-10T04:32:56.476Z,468.00
2023-05-10T04:33:56.938Z,553.00
2023-05-10T04:34:56.496Z,618.00
2023-05-10T04:35:56.554Z,588.00
2023-05-10T04:36:56.616Z,617.00
2023-05-10T04:37:56.659Z,658.00
2023-05-10T04:38:56.752Z,597.00
2023-05-10T04:39:56.727Z,562.00
2023-05-10T04:40:56.749Z,602.00
2023-05-10T04:41:56.838Z,870.00
2023-05-10T04:42:56.788Z,980.00
2023-05-10T04:43:56.804Z,1024.00
2023-05-10T04:44:56.784Z,1143.00
2023-05-10T04:45:56.862Z,1186.00
2023-05-10T04:46:56.859Z,1179.00
2023-05-10T04:47:56.951Z,1204.00
2023-05-10T04:48:56.947Z,1020.00
2023-05-10T04:49:56.986Z,983.00
2023-05-10T04:50:57.063Z,1180.00
2023-05-10T04:51:57.060Z,1461.00
2023-05-10T04:52:57.176Z,1466.00
2023-05-10T04:54:05.151Z,1440.00
2023-05-10T04:54:58.129Z,1344.00
2023-05-10T04:55:57.103Z,1305.00
2023-05-10T04:56:57.099Z,1379.00
2023-05-10T04:57:57.091Z,1469.00
2023-05-10T04:58:57.134Z,1467.00
2023-05-10T04:59:57.119Z,1513.00
2023-05-10T05:00:57.117Z,1680.00
2023-05-10T05:01:57.189Z,1748.00
2023-05-10T05:02:57.163Z,1677.00
2023-05-10T05:03:57.226Z,1697.00
2023-05-10T05:04:57.092Z,1712.00
2023-05-10T05:05:57.081Z,1696.00
2023-05-10T05:06:57.027Z,1636.00
2023-05-10T05:07:57.115Z,1737.00
2023-05-10T05:09:00.549Z,1990.00
2023-05-10T05:09:57.112Z,2176.00
2023-05-10T05:10:57.109Z,2170.00
2023-05-10T05:11:57.091Z,2281.00
2023-05-10T05:12:57.150Z,2136.00
2023-05-10T05:13:57.060Z,1933.00
2023-05-10T05:14:57.095Z,2063.00
2023-05-10T05:15:57.096Z,2435.00
2023-05-10T05:16:57.060Z,2531.00
2023-05-10T05:17:57.078Z,2345.00
2023-05-10T05:18:57.052Z,2362.00
2023-05-10T05:19:57.093Z,2359.00
2023-05-10T05:20:57.031Z,2305.00
2023-05-10T05:21:57.037Z,2306.00
2023-05-10T05:22:57.019Z,2363.00
2023-05-10T05:23:57.018Z,2223.00
2023-05-10T05:24:57.993Z,2038.00
2023-05-10T05:25:57.035Z,2166.00
2023-05-10T05:26:57.044Z,2052.00
2023-05-10T05:27:57.077Z,2077.00
2023-05-10T05:28:57.071Z,2135.00
2023-05-10T05:29:56.975Z,2121.00
2023-05-10T05:30:57.003Z,2026.00
2023-05-10T05:31:56.989Z,2050.00
2023-05-10T05:32:57.192Z,2045.00
2023-05-10T05:33:57.043Z,2016.00
2023-05-10T05:34:57.139Z,1792.00
2023-05-10T05:35:56.977Z,1728.00
2023-05-10T05:36:56.946Z,1641.00
2023-05-10T05:37:56.916Z,1590.00
2023-05-10T05:38:56.909Z,1628.00
2023-05-10T05:39:56.962Z,1293.00
2023-05-10T05:40:56.954Z,1148.00
2023-05-10T05:41:56.910Z,1313.00
2023-05-10T05:42:56.913Z,1448.00
2023-05-10T05:43:56.872Z,1386.00
2023-05-10T05:44:56.892Z,1419.00
2023-05-10T05:45:56.900Z,1402.00
2023-05-10T05:46:56.853Z,1389.00
2023-05-10T05:47:56.907Z,1463.00
2023-05-10T05:48:56.865Z,1453.00
2023-05-10T05:49:56.874Z,1533.00
2023-05-10T05:50:56.861Z,1580.00
2023-05-10T05:51:56.810Z,1758.00
2023-05-10T05:52:56.814Z,2078.00
2023-05-10T05:53:56.795Z,2441.00
2023-05-10T05:54:56.789Z,2502.00
2023-05-10T05:55:56.803Z,2516.00
2023-05-10T05:56:57.328Z,2596.00
2023-05-10T05:57:56.780Z,2295.00
2023-05-10T05:58:56.793Z,2066.00
2023-05-10T05:59:56.862Z,1739.00
2023-05-10T06:00:56.828Z,1554.00
2023-05-10T06:01:57.022Z,1237.00
2023-05-10T06:02:57.002Z,1111.00
2023-05-10T06:03:57.010Z,1152.00
2023-05-10T06:04:57.006Z,1195.00
2023-05-10T06:05:57.086Z,1302.00
2023-05-10T06:06:57.129Z,1599.00
2023-05-10T06:07:57.127Z,1946.00
2023-05-10T06:08:57.135Z,1675.00
2023-05-10T06:09:57.213Z,1597.00
2023-05-10T06:10:57.262Z,1550.00
2023-05-10T06:11:57.321Z,1597.00
2023-05-10T06:12:57.375Z,1787.00
2023-05-10T06:13:57.389Z,2117.00
2023-05-10T06:14:57.500Z,2527.00
2023-05-10T06:15:57.499Z,2669.00
2023-05-10T06:16:58.080Z,2841.00
2023-05-10T06:17:57.721Z,2885.00
2023-05-10T06:18:57.827Z,2807.00
2023-05-10T06:19:57.665Z,2717.00
2023-05-10T06:20:57.732Z,2660.00
2023-05-10T06:21:57.742Z,2613.00
2023-05-10T06:22:57.769Z,2705.00
2023-05-10T06:23:57.818Z,2960.00
2023-05-10T06:24:57.866Z,3047.00
2023-05-10T06:25:57.896Z,2970.00
2023-05-10T06:26:57.929Z,2845.00
2023-05-10T06:27:57.977Z,2709.00
2023-05-10T06:28:58.964Z,2517.00
2023-05-10T06:30:09.258Z,2418.00
2023-05-10T06:30:59.114Z,2419.00
2023-05-10T06:31:58.326Z,2434.00
2023-05-10T06:32:58.254Z,2462.00
2023-05-10T06:33:58.009Z,2495.00
2023-05-10T06:34:58.070Z,2452.00
2023-05-10T06:35:58.020Z,2350.00
2023-05-10T06:36:58.102Z,2341.00
2023-05-10T06:37:58.008Z,2500.00
2023-05-10T06:38:58.056Z,2434.00
2023-05-10T06:39:58.485Z,2466.00
2023-05-10T06:40:57.987Z,2423.00
2023-05-10T06:41:57.969Z,2365.00
2023-05-10T06:42:58.008Z,2545.00
2023-05-10T06:43:57.986Z,2563.00
2023-05-10T06:44:58.483Z,2552.00
2023-05-10T06:45:58.115Z,2682.00
2023-05-10T06:46:58.034Z,2877.00
2023-05-10T06:47:58.110Z,3039.00
2023-05-10T06:48:58.081Z,2921.00
2023-05-10T06:49:58.106Z,2923.00
2023-05-10T06:50:58.123Z,3059.00
2023-05-10T06:51:59.009Z,2829.00
2023-05-10T06:52:58.157Z,2745.00
2023-05-10T06:53:59.113Z,2677.00
2023-05-10T06:54:58.223Z,2576.00
2023-05-10T06:55:58.231Z,2481.00
2023-05-10T06:56:58.205Z,2339.00
2023-05-10T06:57:58.191Z,2212.00
2023-05-10T06:58:58.512Z,2213.00
2023-05-10T06:59:58.237Z,2249.00
2023-05-10T07:00:58.447Z,2103.00
2023-05-10T07:01:58.362Z,2016.00
2023-05-10T07:02:59.369Z,1994.00
2023-05-10T07:03:58.409Z,1939.00
2023-05-10T07:05:00.861Z,2029.00
2023-05-10T07:05:58.422Z,2021.00
2023-05-10T07:06:58.393Z,2043.00
2023-05-10T07:07:58.252Z,2110.00
2023-05-10T07:08:58.323Z,2342.00
2023-05-10T07:09:58.279Z,2728.00
2023-05-10T07:10:58.352Z,2857.00
2023-05-10T07:11:58.222Z,2917.00
2023-05-10T07:12:58.388Z,2652.00
2023-05-10T07:13:58.251Z,2444.00
2023-05-10T07:14:58.227Z,2588.00
2023-05-10T07:15:58.222Z,2698.00
2023-05-10T07:16:58.266Z,2709.00
2023-05-10T07:17:58.306Z,2722.00
2023-05-10T07:18:58.217Z,2669.00
2023-05-10T07:19:58.981Z,2675.00
2023-05-10T07:20:58.203Z,2576.00
2023-05-10T07:21:58.163Z,2531.00
2023-05-10T07:22:58.172Z,2224.00
2023-05-10T07:23:58.153Z,1818.00
2023-05-10T07:24:58.994Z,1684.00
2023-05-10T07:25:58.179Z,1504.00
2023-05-10T07:26:58.153Z,1550.00
2023-05-10T07:27:58.122Z,1665.00
2023-05-10T07:28:58.190Z,1949.00
2023-05-10T07:29:58.159Z,1878.00
2023-05-10T07:30:58.262Z,1822.00
2023-05-10T07:31:59.079Z,1997.00
2023-05-10T07:32:59.075Z,1826.00
2023-05-10T07:33:58.446Z,1502.00
2023-05-10T07:34:58.505Z,1092.00
2023-05-10T07:35:58.362Z,1038.00
2023-05-10T07:36:58.369Z,1037.00
2023-05-10T07:37:58.490Z,1001.00
2023-05-10T07:38:58.484Z,1053.00
2023-05-10T07:39:58.568Z,909.00
2023-05-10T07:40:58.548Z,765.00
2023-05-10T07:41:58.584Z,868.00
2023-05-10T07:42:58.584Z,731.00
2023-05-10T07:43:58.689Z,659.00
2023-05-10T07:44:58.684Z,615.00
2023-05-10T07:45:58.946Z,579.00
2023-05-10T07:46:58.713Z,581.00
2023-05-10T07:47:58.827Z,572.00
2023-05-10T07:48:58.751Z,604.00
2023-05-10T07:49:59.008Z,634.00
2023-05-10T07:50:58.808Z,622.00
2023-05-10T07:51:58.909Z,570.00
2023-05-10T07:52:59.089Z,794.00
2023-05-10T07:53:58.916Z,654.00
2023-05-10T07:54:59.008Z,642.00
2023-05-10T07:55:58.953Z,692.00
2023-05-10T07:56:59.011Z,976.00
2023-05-10T07:57:59.027Z,956.00
2023-05-10T07:58:59.019Z,878.00
2023-05-10T07:59:59.069Z,923.00
2023-05-10T08:00:59.089Z,926.00
2023-05-10T08:01:59.093Z,1072.00
2023-05-10T08:02:59.243Z,1168.00
2023-05-10T08:03:59.231Z,1163.00
2023-05-10T08:04:59.243Z,1010.00
2023-05-10T08:05:59.215Z,1063.00
2023-05-10T08:06:59.267Z,1192.00
2023-05-10T08:07:59.302Z,1296.00
2023-05-10T08:08:59.348Z,1248.00
2023-05-10T08:09:59.503Z,760.00
2023-05-10T08:10:59.434Z,957.00
2023-05-10T08:11:59.481Z,1032.00
2023-05-10T08:12:59.543Z,1023.00
2023-05-10T08:13:59.624Z,1072.00
2023-05-10T08:14:59.686Z,1177.00
2023-05-10T08:15:59.687Z,1114.00
2023-05-10T08:16:59.742Z,701.00
2023-05-10T08:17:59.835Z,641.00
2023-05-10T08:18:59.900Z,752.00
2023-05-10T08:20:00.017Z,710.00
2023-05-10T08:20:59.856Z,625.00
2023-05-10T08:21:59.886Z,627.00
2023-05-10T08:22:59.968Z,630.00
2023-05-10T08:24:00.553Z,655.00
2023-05-10T08:25:00.043Z,843.00
2023-05-10T08:26:00.050Z,902.00
2023-05-10T08:27:00.137Z,1024.00
2023-05-10T08:28:00.195Z,1335.00
2023-05-10T08:29:00.373Z,1265.00
2023-05-10T08:30:00.238Z,1088.00
2023-05-10T08:31:00.540Z,1059.00
2023-05-10T08:32:00.375Z,1126.00
2023-05-10T08:33:00.559Z,1252.00
2023-05-10T08:34:00.466Z,1456.00
2023-05-10T08:35:00.567Z,1320.00
2023-05-10T08:36:00.520Z,1237.00
2023-05-10T08:37:00.576Z,1117.00
2023-05-10T08:38:00.617Z,1228.00
2023-05-10T08:39:00.697Z,1218.00
2023-05-10T08:40:00.773Z,1282.00
2023-05-10T08:41:00.850Z,1256.00
2023-05-10T08:42:00.926Z,956.00
2023-05-10T08:43:00.838Z,980.00
2023-05-10T08:44:00.917Z,1126.00
2023-05-10T08:45:00.992Z,1211.00
2023-05-10T08:46:01.069Z,1393.00
2023-05-10T08:47:01.044Z,1702.00
2023-05-10T08:48:01.055Z,1660.00
2023-05-10T08:49:02.999Z,1557.00
2023-05-10T08:50:01.621Z,1335.00
2023-05-10T08:51:02.025Z,1498.00
2023-05-10T08:52:01.111Z,1554.00
2023-05-10T08:53:01.141Z,1680.00
2023-05-10T08:54:02.096Z,2008.00
2023-05-10T08:55:01.524Z,1850.00
2023-05-10T08:56:01.346Z,1412.00
2023-05-10T08:57:01.316Z,1378.00
2023-05-10T08:58:01.379Z,1192.00
2023-05-10T08:59:01.466Z,1086.00
2023-05-10T09:00:01.552Z,1047.00
2023-05-10T09:01:01.460Z,1070.00
2023-05-10T09:02:01.517Z,1090.00
2023-05-10T09:03:01.585Z,1133.00
2023-05-10T09:04:01.608Z,1159.00
2023-05-10T09:05:01.725Z,1260.00
2023-05-10T09:06:01.665Z,1324.00
2023-05-10T09:07:01.861Z,1411.00
2023-05-10T09:08:01.884Z,1524.00
2023-05-10T09:09:01.999Z,1153.00
2023-05-10T09:10:02.010Z,1111.00
2023-05-10T09:11:01.780Z,1003.00
2023-05-10T09:12:01.807Z,807.00
2023-05-10T09:13:01.867Z,943.00
2023-05-10T09:14:01.922Z,927.00
2023-05-10T09:15:01.896Z,953.00
2023-05-10T09:16:09.797Z,1131.00
2023-05-10T09:17:02.924Z,1131.00
2023-05-10T09:18:01.912Z,1130.00
2023-05-10T09:19:01.862Z,1078.00
2023-05-10T09:20:01.925Z,1116.00
2023-05-10T09:21:01.864Z,1207.00
2023-05-10T09:22:01.845Z,1238.00
2023-05-10T09:23:01.860Z,1245.00
2023-05-10T09:24:01.808Z,1273.00
2023-05-10T09:25:01.796Z,1424.00
2023-05-10T09:26:02.152Z,1565.00
2023-05-10T09:27:01.909Z,1506.00
2023-05-10T09:28:01.780Z,1403.00
2023-05-10T09:29:01.764Z,1491.00
2023-05-10T09:30:01.788Z,1474.00
2023-05-10T09:31:01.830Z,1457.00
2023-05-10T09:32:01.757Z,1488.00
2023-05-10T09:33:01.866Z,1817.00
2023-05-10T09:34:01.797Z,1676.00
2023-05-10T09:35:01.818Z,1436.00
2023-05-10T09:36:02.541Z,1492.00
2023-05-10T09:37:01.951Z,1503.00
2023-05-10T09:38:01.947Z,1405.00
2023-05-10T09:39:01.998Z,1251.00
2023-05-10T09:40:02.040Z,1321.00
2023-05-10T09:41:02.099Z,1261.00
2023-05-10T09:42:02.043Z,1158.00
2023-05-10T09:43:02.085Z,1042.00
2023-05-10T09:44:02.128Z,1045.00
2023-05-10T09:45:02.170Z,1060.00
2023-05-10T09:46:03.052Z,944.00
2023-05-10T09:47:02.202Z,909.00
2023-05-10T09:48:02.338Z,853.00
2023-05-10T09:49:02.343Z,861.00
2023-05-10T09:50:02.461Z,1002.00
2023-05-10T09:51:02.620Z,1307.00
2023-05-10T09:52:03.146Z,1451.00
2023-05-10T09:53:02.401Z,1834.00
2023-05-10T09:54:03.091Z,3194.00
2023-05-10T09:55:02.539Z,2945.00
2023-05-10T09:56:02.517Z,1902.00
2023-05-10T09:57:02.535Z,1290.00
2023-05-10T09:58:02.598Z,990.00
2023-05-10T09:59:02.566Z,884.00
2023-05-10T10:00:02.603Z,648.00
2023-05-10T10:01:02.669Z,601.00
2023-05-10T10:02:02.757Z,705.00
2023-05-10T10:03:02.790Z,1163.00
2023-05-10T10:04:02.672Z,1009.00
2023-05-10T10:05:02.850Z,927.00
2023-05-10T10:06:02.812Z,784.00
2023-05-10T10:07:02.779Z,614.00
2023-05-10T10:08:02.822Z,506.00
2023-05-10T10:09:02.902Z,483.00
2023-05-10T10:10:02.951Z,489.00
2023-05-10T10:11:04.576Z,526.00
2023-05-10T10:12:03.026Z,655.00
2023-05-10T10:13:02.941Z,662.00
2023-05-10T10:14:02.983Z,725.00
2023-05-10T10:15:02.992Z,803.00
2023-05-10T10:16:03.045Z,905.00
2023-05-10T10:17:07.384Z,901.00
2023-05-10T10:18:04.105Z,903.00
2023-05-10T10:19:03.248Z,878.00
2023-05-10T10:20:03.033Z,996.00
2023-05-10T10:21:03.554Z,1154.00
2023-05-10T10:22:03.010Z,1225.00
2023-05-10T10:23:03.569Z,1226.00
2023-05-10T10:24:03.061Z,1002.00
2023-05-10T10:25:03.013Z,1129.00
2023-05-10T10:26:03.033Z,1090.00
2023-05-10T10:27:02.998Z,1054.00
2023-05-10T10:28:03.012Z,1007.00
2023-05-10T10:29:03.192Z,1105.00
2023-05-10T10:30:03.006Z,1085.00
2023-05-10T10:31:03.050Z,1067.00
2023-05-10T10:32:02.968Z,1256.00
2023-05-10T10:33:10.120Z,1339.00
2023-05-10T10:34:04.206Z,1201.00
2023-05-10T10:35:03.561Z,1132.00
2023-05-10T10:36:02.950Z,849.00
2023-05-10T10:37:03.139Z,802.00
2023-05-10T10:38:02.944Z,655.00
2023-05-10T10:39:03.054Z,656.00
2023-05-10T10:40:02.929Z,605.00
2023-05-10T10:41:02.967Z,617.00
2023-05-10T10:42:02.921Z,634.00
2023-05-10T10:43:02.900Z,638.00
2023-05-10T10:44:02.908Z,757.00
2023-05-10T10:45:02.977Z,816.00
2023-05-10T10:46:03.040Z,909.00
2023-05-10T10:47:03.268Z,709.00
2023-05-10T10:48:03.243Z,658.00
2023-05-10T10:49:03.256Z,678.00
2023-05-10T10:50:03.220Z,884.00
2023-05-10T10:51:03.294Z,1229.00
2023-05-10T10:52:03.356Z,1434.00
2023-05-10T10:53:03.443Z,1337.00
2023-05-10T10:54:03.396Z,768.00
2023-05-10T10:55:03.421Z,637.00
2023-05-10T10:56:03.500Z,542.00
2023-05-10T10:57:03.599Z,477.00
2023-05-10T10:58:03.570Z,433.00
2023-05-10T10:59:03.595Z,426.00
2023-05-10T11:00:03.609Z,408.00
2023-05-10T11:01:03.693Z,502.00
2023-05-10T11:02:03.748Z,537.00
2023-05-10T11:03:03.807Z,618.00
2023-05-10T11:04:03.904Z,641.00
2023-05-10T11:05:03.857Z,1399.00
2023-05-10T11:06:03.930Z,1802.00
2023-05-10T11:07:04.091Z,1745.00
2023-05-10T11:08:04.027Z,1787.00
2023-05-10T11:09:04.231Z,1859.00
2023-05-10T11:10:04.104Z,1666.00
2023-05-10T11:11:04.209Z,1445.00
2023-05-10T11:12:04.405Z,1252.00
2023-05-10T11:13:04.342Z,1347.00
2023-05-10T11:14:04.348Z,1476.00
2023-05-10T11:15:04.348Z,1740.00
2023-05-10T11:16:04.486Z,1908.00
2023-05-10T11:17:04.539Z,2094.00
2023-05-10T11:18:04.552Z,2079.00
2023-05-10T11:19:04.629Z,1733.00
2023-05-10T11:20:04.554Z,1654.00
2023-05-10T11:21:04.615Z,1199.00
2023-05-10T11:22:04.646Z,608.00
2023-05-10T11:23:04.669Z,519.00
2023-05-10T11:24:04.729Z,500.00
2023-05-10T11:25:04.828Z,500.00
2023-05-10T11:26:04.873Z,1676.00
2023-05-10T11:27:04.875Z,2490.00
2023-05-10T11:28:04.908Z,1575.00
2023-05-10T11:29:05.009Z,929.00
2023-05-10T11:30:05.173Z,513.00
2023-05-10T11:31:05.287Z,472.00
2023-05-10T11:32:05.185Z,501.00
2023-05-10T11:33:05.211Z,490.00
2023-05-10T11:34:06.075Z,595.00
2023-05-10T11:35:05.201Z,525.00
2023-05-10T11:36:05.202Z,548.00
2023-05-10T11:37:05.262Z,542.00
2023-05-10T11:38:05.273Z,493.00
2023-05-10T11:39:05.312Z,432.00
2023-05-10T11:40:05.281Z,521.00
2023-05-10T11:41:05.352Z,654.00
2023-05-10T11:42:05.414Z,928.00
2023-05-10T11:43:05.450Z,1167.00
2023-05-10T11:44:05.550Z,1182.00
2023-05-10T11:45:05.585Z,1326.00
2023-05-10T11:46:05.608Z,820.00
2023-05-10T11:47:05.620Z,531.00
2023-05-10T11:48:05.664Z,521.00
2023-05-10T11:49:05.856Z,425.00
2023-05-10T11:50:05.585Z,599.00
2023-05-10T11:51:05.631Z,699.00
2023-05-10T11:52:05.626Z,901.00
2023-05-10T11:53:05.639Z,878.00
2023-05-10T11:54:05.659Z,593.00
2023-05-10T11:55:05.707Z,447.00
2023-05-10T11:56:05.725Z,445.00
2023-05-10T11:57:05.783Z,548.00
2023-05-10T11:58:05.808Z,599.00
2023-05-10T11:59:05.855Z,752.00
2023-05-10T12:00:05.821Z,1107.00
2023-05-10T12:01:05.832Z,917.00
2023-05-10T12:02:05.913Z,779.00
2023-05-10T12:03:06.014Z,676.00
2023-05-10T12:04:06.225Z,564.00
2023-05-10T12:05:06.110Z,698.00
2023-05-10T12:06:06.139Z,1107.00
2023-05-10T12:07:06.084Z,681.00
2023-05-10T12:08:06.125Z,485.00
2023-05-10T12:09:06.173Z,400.00
2023-05-10T12:10:06.215Z,464.00
2023-05-10T12:11:06.286Z,500.00
2023-05-10T12:12:06.249Z,419.00
2023-05-10T12:13:06.318Z,488.00
2023-05-10T12:14:06.341Z,533.00
2023-05-10T12:15:06.352Z,667.00
2023-05-10T12:16:06.431Z,657.00
2023-05-10T12:17:06.460Z,530.00
2023-05-10T12:18:06.489Z,479.00
2023-05-10T12:19:06.686Z,510.00
2023-05-10T12:20:06.599Z,467.00
2023-05-10T12:21:06.668Z,449.00
2023-05-10T12:22:07.094Z,458.00
2023-05-10T12:23:06.715Z,476.00
2023-05-10T12:24:06.724Z,538.00
2023-05-10T12:25:06.867Z,561.00
2023-05-10T12:26:06.825Z,706.00